createdAt,value
2023-04-11T00:00:32.448Z,0.90
2023-04-11T00:03:01.781Z,0.88
2023-04-11T00:05:31.246Z,1.30
2023-04-11T00:07:57.711Z,1.10
2023-04-11T00:10:24.232Z,1.08
2023-04-11T00:12:50.570Z,1.33
2023-04-11T00:15:17.501Z,1.17
2023-04-11T00:17:45.864Z,0.90
2023-04-11T00:20:13.000Z,1.13
2023-04-11T00:22:39.629Z,1.23
2023-04-11T00:25:07.039Z,1.10
2023-04-11T00:27:33.632Z,1.25
2023-04-11T00:30:00.664Z,0.90
2023-04-11T00:32:27.659Z,1.30
2023-04-11T00:34:55.218Z,1.30
2023-04-11T00:37:22.093Z,1.10
2023-04-11T00:39:53.222Z,1.38
2023-04-11T00:42:20.434Z,1.42
2023-04-11T00:44:47.413Z,1.20
2023-04-11T00:47:14.389Z,1.30
2023-04-11T00:49:41.058Z,1.30
2023-04-11T00:52:08.088Z,1.10
2023-04-11T00:54:34.973Z,1.30
2023-04-11T00:57:03.343Z,1.15
2023-04-11T00:59:31.534Z,1.20
2023-04-11T01:01:59.077Z,1.00
2023-04-11T01:04:29.876Z,1.33
2023-04-11T01:07:05.811Z,1.23
2023-04-11T01:09:33.755Z,1.25
2023-04-11T01:12:01.664Z,1.70
2023-04-11T01:14:28.912Z,1.42
2023-04-11T01:16:56.663Z,1.73
2023-04-11T01:19:26.146Z,1.85
2023-04-11T01:21:53.909Z,1.38
2023-04-11T01:24:20.731Z,1.30
2023-04-11T01:26:47.556Z,1.77
2023-04-11T01:29:14.184Z,1.30
2023-04-11T01:31:40.818Z,1.55
2023-04-11T01:34:07.670Z,2.00
2023-04-11T01:36:34.313Z,2.40
2023-04-11T01:39:01.574Z,1.80
2023-04-11T01:41:30.437Z,2.20
2023-04-11T01:43:57.060Z,1.95
2023-04-11T01:46:24.220Z,2.05
2023-04-11T01:48:50.758Z,1.58
2023-04-11T01:51:17.368Z,1.77
2023-04-11T01:53:45.917Z,2.10
2023-04-11T01:58:39.092Z,3.17
2023-04-11T02:01:05.591Z,1.63
2023-04-11T02:03:32.013Z,1.70
2023-04-11T02:05:58.819Z,1.88
2023-04-11T02:08:25.267Z,2.55
2023-04-11T02:10:51.861Z,2.25
2023-04-11T02:13:18.220Z,1.95
2023-04-11T02:15:44.628Z,2.85
2023-04-11T02:18:11.174Z,3.35
2023-04-11T02:20:37.633Z,2.50
2023-04-11T02:23:04.504Z,2.70
2023-04-11T02:25:31.490Z,1.95
2023-04-11T02:27:58.086Z,2.60
2023-04-11T02:30:24.415Z,2.53
2023-04-11T02:32:51.115Z,2.75
2023-04-11T02:35:17.652Z,3.30
2023-04-11T02:37:44.228Z,3.10
2023-04-11T02:40:10.965Z,3.17
2023-04-11T02:42:38.916Z,4.18
2023-04-11T02:45:05.750Z,3.83
2023-04-11T02:47:32.356Z,4.65
2023-04-11T02:49:58.754Z,3.83
2023-04-11T02:52:26.134Z,4.20
2023-04-11T02:54:52.714Z,4.18
2023-04-11T02:57:19.071Z,4.45
2023-04-11T02:59:45.451Z,4.38
2023-04-11T03:02:11.964Z,4.10
2023-04-11T03:04:38.672Z,4.72
2023-04-11T03:07:05.670Z,4.32
2023-04-11T03:09:32.388Z,3.80
2023-04-11T03:11:58.756Z,4.10
2023-04-11T03:14:25.120Z,4.95
2023-04-11T03:16:51.527Z,5.03
2023-04-11T03:19:17.896Z,5.03
2023-04-11T03:21:44.218Z,4.63
2023-04-11T03:24:12.505Z,4.97
2023-04-11T03:26:38.899Z,5.20
2023-04-11T03:29:05.239Z,5.07
2023-04-11T03:31:31.946Z,4.25
2023-04-11T03:33:59.404Z,5.35
2023-04-11T03:36:29.560Z,5.65
2023-04-11T03:38:56.503Z,4.50
2023-04-11T03:41:23.299Z,4.47
2023-04-11T03:43:49.641Z,4.68
2023-04-11T03:46:16.023Z,4.78
2023-04-11T03:48:42.611Z,4.50
2023-04-11T03:51:09.189Z,4.00
2023-04-11T03:53:35.623Z,4.68
2023-04-11T03:56:01.977Z,4.95
2023-04-11T03:58:28.334Z,5.88
2023-04-11T04:00:54.752Z,5.65
2023-04-11T04:03:21.776Z,5.63
2023-04-11T04:05:48.663Z,5.18
2023-04-11T04:08:15.270Z,5.07
2023-04-11T04:10:41.592Z,5.68
2023-04-11T04:13:07.963Z,5.18
2023-04-11T04:15:34.617Z,5.70
2023-04-11T04:18:00.977Z,5.57
2023-04-11T04:20:27.417Z,5.05
2023-04-11T04:22:54.102Z,5.03
2023-04-11T04:25:20.556Z,6.50
2023-04-11T04:27:47.714Z,4.78
2023-04-11T04:30:19.342Z,5.05
2023-04-11T04:32:46.303Z,5.35
2023-04-11T04:35:14.123Z,5.00
2023-04-11T04:37:45.886Z,4.68
2023-04-11T04:40:14.085Z,4.60
2023-04-11T04:42:44.071Z,4.20
2023-04-11T04:45:13.385Z,4.63
2023-04-11T04:47:39.860Z,4.45
2023-04-11T04:50:06.875Z,5.47
2023-04-11T04:52:33.566Z,5.70
2023-04-11T04:55:01.034Z,5.25
2023-04-11T04:57:32.101Z,5.47
2023-04-11T04:59:58.960Z,5.57
2023-04-11T05:02:26.615Z,5.60
2023-04-11T05:04:54.744Z,6.05
2023-04-11T05:07:21.134Z,6.93
2023-04-11T05:09:47.725Z,4.90
2023-04-11T05:12:15.919Z,5.60
2023-04-11T05:14:42.568Z,5.15
2023-04-11T05:17:09.219Z,5.75
2023-04-11T05:19:35.705Z,6.07
2023-04-11T05:22:02.123Z,5.45
2023-04-11T05:24:28.496Z,5.53
2023-04-11T05:26:55.067Z,5.70
2023-04-11T05:29:21.430Z,5.65
2023-04-11T05:31:47.803Z,6.00
2023-04-11T05:34:14.238Z,6.00
2023-04-11T05:36:42.197Z,5.15
2023-04-11T05:39:08.598Z,4.88
2023-04-11T05:41:34.964Z,5.43
2023-04-11T05:44:01.887Z,5.13
2023-04-11T05:46:29.433Z,5.32
2023-04-11T05:48:57.990Z,2.90
2023-04-11T05:51:24.594Z,1.73
2023-04-11T05:53:51.924Z,2.58
2023-04-11T05:56:18.337Z,2.05
2023-04-11T05:58:44.710Z,2.83
2023-04-11T06:01:20.319Z,3.22
2023-04-11T06:03:47.360Z,2.58
2023-04-11T06:06:14.108Z,3.20
2023-04-11T06:08:41.392Z,2.70
2023-04-11T06:11:08.101Z,3.63
2023-04-11T06:13:34.496Z,3.70
2023-04-11T06:16:01.625Z,4.05
2023-04-11T06:18:27.991Z,3.55
2023-04-11T06:20:54.448Z,3.95
2023-04-11T06:23:21.258Z,4.25
2023-04-11T06:25:47.740Z,4.10
2023-04-11T06:28:14.237Z,3.90
2023-04-11T06:30:40.599Z,5.50
2023-04-11T06:33:07.238Z,4.40
2023-04-11T06:35:33.955Z,4.40
2023-04-11T06:38:00.596Z,4.13
2023-04-11T06:40:27.009Z,3.67
2023-04-11T06:42:53.686Z,3.60
2023-04-11T06:45:20.364Z,4.10
2023-04-11T06:47:47.053Z,4.40
2023-04-11T06:50:13.722Z,3.58
2023-04-11T06:52:40.056Z,3.70
2023-04-11T06:55:07.220Z,4.60
2023-04-11T06:57:34.077Z,4.95
2023-04-11T07:00:00.938Z,4.32
2023-04-11T07:02:27.665Z,4.30
2023-04-11T07:04:54.267Z,4.07
2023-04-11T07:07:21.210Z,3.78
2023-04-11T07:09:47.569Z,3.53
2023-04-11T07:12:14.169Z,3.92
2023-04-11T07:14:40.922Z,4.10
2023-04-11T07:17:07.335Z,3.95
2023-04-11T07:19:33.941Z,3.80
2023-04-11T07:22:00.450Z,4.03
2023-04-11T07:24:27.306Z,3.80
2023-04-11T07:26:54.259Z,3.70
2023-04-11T07:29:21.340Z,3.22
2023-04-11T07:31:48.111Z,3.83
2023-04-11T07:34:14.580Z,3.72
2023-04-11T07:36:41.783Z,3.92
2023-04-11T07:39:09.513Z,3.67
2023-04-11T07:41:39.222Z,3.95
2023-04-11T07:44:07.149Z,3.78
2023-04-11T07:46:33.999Z,3.20
2023-04-11T07:49:00.374Z,2.83
2023-04-11T07:51:27.192Z,2.40
2023-04-11T07:53:54.494Z,3.10
2023-04-11T07:56:21.082Z,2.88
2023-04-11T07:58:47.806Z,2.58
2023-04-11T08:01:25.776Z,2.92
2023-04-11T08:03:56.180Z,2.67
2023-04-11T08:06:23.732Z,2.72
2023-04-11T08:08:51.139Z,2.28
2023-04-11T08:11:17.854Z,2.88
2023-04-11T08:13:44.457Z,2.92
2023-04-11T08:16:12.322Z,2.22
2023-04-11T08:18:42.557Z,2.28
2023-04-11T08:21:11.419Z,2.80
2023-04-11T08:23:39.883Z,2.40
2023-04-11T08:26:08.054Z,2.40
2023-04-11T08:28:34.448Z,2.70
2023-04-11T08:31:04.174Z,2.70
2023-04-11T08:33:30.911Z,2.63
2023-04-11T08:35:57.349Z,2.65
2023-04-11T08:38:26.210Z,2.63
2023-04-11T08:40:52.976Z,3.00
2023-04-11T08:43:19.744Z,2.95
2023-04-11T08:45:47.238Z,3.15
2023-04-11T08:48:13.838Z,2.95
2023-04-11T08:50:43.713Z,3.10
2023-04-11T08:53:10.705Z,2.95
2023-04-11T08:55:45.781Z,3.13
2023-04-11T08:58:12.566Z,3.03
2023-04-11T09:00:39.036Z,3.22
2023-04-11T09:03:07.605Z,3.08
2023-04-11T09:08:04.885Z,3.17
2023-04-11T09:10:31.529Z,3.47
2023-04-11T09:12:58.623Z,3.40
2023-04-11T09:15:30.448Z,3.40
2023-04-11T09:18:00.347Z,3.90
2023-04-11T09:20:30.136Z,3.53
2023-04-11T09:22:59.206Z,3.83
2023-04-11T09:25:25.839Z,3.47
2023-04-11T09:28:08.586Z,3.05
2023-04-11T09:30:35.228Z,3.20
2023-04-11T09:33:22.403Z,3.42
2023-04-11T09:35:50.756Z,3.05
2023-04-11T09:38:34.146Z,4.15
2023-04-11T09:41:02.342Z,3.10
2023-04-11T09:43:49.806Z,3.30
2023-04-11T09:46:18.690Z,2.95
2023-04-11T09:48:46.900Z,2.80
2023-04-11T09:51:24.267Z,4.03
2023-04-11T09:54:02.086Z,2.90
2023-04-11T09:56:30.554Z,8.90
2023-04-11T09:58:59.434Z,4.10
2023-04-11T10:01:27.397Z,3.25
2023-04-11T10:03:55.764Z,3.20
2023-04-11T10:06:38.876Z,2.75
2023-04-11T10:09:08.016Z,3.05
2023-04-11T10:11:34.672Z,3.03
2023-04-11T10:14:01.143Z,3.15
2023-04-11T10:16:31.345Z,3.10
2023-04-11T10:18:57.804Z,2.88
2023-04-11T10:21:30.495Z,3.17
2023-04-11T10:24:17.163Z,3.05
2023-04-11T10:26:58.945Z,3.40
2023-04-11T10:29:28.438Z,2.88
2023-04-11T10:32:15.992Z,3.00
2023-04-11T10:34:54.614Z,2.90
2023-04-11T10:37:30.378Z,2.53
2023-04-11T10:40:11.944Z,3.40
2023-04-11T10:42:42.888Z,2.47
2023-04-11T10:45:29.739Z,2.67
2023-04-11T10:47:56.291Z,2.45
2023-04-11T10:50:26.154Z,2.70
2023-04-11T10:52:58.477Z,2.58
2023-04-11T10:55:29.423Z,2.38
2023-04-11T10:58:35.821Z,3.10
2023-04-11T11:01:31.548Z,2.65
2023-04-11T11:04:04.441Z,2.20
2023-04-11T11:06:36.170Z,1.92
2023-04-11T11:09:29.089Z,2.30
2023-04-11T11:12:09.126Z,2.30
2023-04-11T11:14:36.521Z,1.85
2023-04-11T11:17:04.538Z,1.98
2023-04-11T11:19:31.726Z,2.42
2023-04-11T11:22:04.967Z,2.67
2023-04-11T11:24:31.741Z,2.50
2023-04-11T11:26:58.488Z,2.70
2023-04-11T11:29:38.016Z,2.20
2023-04-11T11:32:06.349Z,2.38
2023-04-11T11:34:35.291Z,3.17
2023-04-11T11:37:06.943Z,2.50
2023-04-11T11:39:34.872Z,2.45
2023-04-11T11:42:01.804Z,2.90
2023-04-11T11:44:30.947Z,2.38
2023-04-11T11:47:17.757Z,2.83
2023-04-11T11:49:47.483Z,2.90
2023-04-11T11:52:31.728Z,2.75
2023-04-11T11:54:58.468Z,2.83
2023-04-11T11:57:24.892Z,2.38
2023-04-11T11:59:56.124Z,2.25
2023-04-11T12:02:26.781Z,2.55
2023-04-11T12:05:01.520Z,2.47
2023-04-11T12:07:32.707Z,2.75
2023-04-11T12:10:01.218Z,2.10
2023-04-11T12:12:35.465Z,2.08
2023-04-11T12:15:03.909Z,2.45
2023-04-11T12:17:37.838Z,2.30
2023-04-11T12:20:08.432Z,2.00
2023-04-11T12:22:35.313Z,2.30
2023-04-11T12:25:13.344Z,2.70
2023-04-11T12:27:43.999Z,2.60
2023-04-11T12:30:12.233Z,2.22
2023-04-11T12:32:38.722Z,2.10
2023-04-11T12:35:06.334Z,2.38
2023-04-11T12:37:33.716Z,2.40
2023-04-11T12:40:00.799Z,2.70
2023-04-11T12:42:27.624Z,2.90
2023-04-11T12:44:54.655Z,2.35
2023-04-11T12:47:22.638Z,2.70
2023-04-11T12:49:49.067Z,2.08
2023-04-11T12:52:17.153Z,3.38
2023-04-11T12:54:43.589Z,2.42
2023-04-11T12:57:11.891Z,2.40
2023-04-11T12:59:38.246Z,2.92
2023-04-11T13:02:05.752Z,2.30
2023-04-11T13:04:32.509Z,2.65
2023-04-11T13:07:02.360Z,3.05
2023-04-11T13:09:32.605Z,2.53
2023-04-11T13:11:59.568Z,2.28
2023-04-11T13:14:26.234Z,2.20
2023-04-11T13:16:52.750Z,2.53
2023-04-11T13:19:19.619Z,2.58
2023-04-11T13:21:46.242Z,2.20
2023-04-11T13:24:12.616Z,2.30
2023-04-11T13:26:39.499Z,2.22
2023-04-11T13:29:07.317Z,2.35
2023-04-11T13:31:34.034Z,2.25
2023-04-11T13:34:00.785Z,2.20
2023-04-11T13:36:27.392Z,1.85
2023-04-11T13:38:55.702Z,1.77
2023-04-11T13:41:25.485Z,1.90
2023-04-11T13:43:52.628Z,2.03
2023-04-11T13:46:19.794Z,1.20
2023-04-11T13:48:46.244Z,1.30
2023-04-11T13:51:12.949Z,1.40
2023-04-11T13:53:39.820Z,1.55
2023-04-11T13:56:07.774Z,1.48
2023-04-11T13:58:34.965Z,1.33
2023-04-11T14:01:01.437Z,1.65
2023-04-11T14:03:33.223Z,1.75
2023-04-11T14:06:00.665Z,1.80
2023-04-11T14:08:30.279Z,1.50
2023-04-11T14:10:56.840Z,2.47
2023-04-11T14:13:23.549Z,3.65
2023-04-11T14:16:05.003Z,2.00
2023-04-11T14:18:34.069Z,2.35
2023-04-11T14:21:01.692Z,2.10
2023-04-11T14:23:29.101Z,2.03
2023-04-11T14:25:55.723Z,1.60
2023-04-11T14:28:22.242Z,1.17
2023-04-11T14:30:48.785Z,1.92
2023-04-11T14:33:15.622Z,1.80
2023-04-11T14:35:43.220Z,1.98
2023-04-11T14:38:09.634Z,1.48
2023-04-11T14:40:36.060Z,1.50
2023-04-11T14:43:02.783Z,1.25
2023-04-11T14:45:29.142Z,1.15
2023-04-11T14:47:55.742Z,1.20
2023-04-11T14:50:22.423Z,1.40
2023-04-11T14:52:49.330Z,1.40
2023-04-11T14:55:15.910Z,1.00
2023-04-11T14:57:54.273Z,1.20
2023-04-11T15:00:21.842Z,1.60
2023-04-11T15:02:55.845Z,0.95
2023-04-11T15:05:23.571Z,1.10
2023-04-11T15:07:53.040Z,1.77
2023-04-11T15:10:22.342Z,1.10
2023-04-11T15:12:49.467Z,1.20
2023-04-11T15:15:16.349Z,1.38
2023-04-11T15:17:48.926Z,1.40
2023-04-11T15:20:16.307Z,1.40
2023-04-11T15:22:45.396Z,1.05
2023-04-11T15:25:13.889Z,1.13
2023-04-11T15:27:41.119Z,1.45
2023-04-11T15:30:08.192Z,1.30
2023-04-11T15:32:34.816Z,1.13
2023-04-11T15:35:01.403Z,1.10
2023-04-11T15:37:28.038Z,1.38
2023-04-11T15:39:54.521Z,1.00
2023-04-11T15:42:20.924Z,1.33
2023-04-11T15:44:47.396Z,1.15
2023-04-11T15:47:16.706Z,1.27
2023-04-11T15:49:43.203Z,1.30
2023-04-11T15:52:10.636Z,1.40
2023-04-11T15:54:37.286Z,1.23
2023-04-11T15:57:04.027Z,1.05
2023-04-11T15:59:30.704Z,1.52
2023-04-11T16:01:57.493Z,0.82
2023-04-11T16:04:24.121Z,1.10
2023-04-11T16:06:50.916Z,1.05
2023-04-11T16:09:17.669Z,1.13
2023-04-11T16:11:44.039Z,1.52
2023-04-11T16:14:11.267Z,1.42
2023-04-11T16:16:37.864Z,1.27
2023-04-11T16:19:04.513Z,1.00
2023-04-11T16:21:31.327Z,1.20
2023-04-11T16:23:57.871Z,1.50
2023-04-11T16:26:24.377Z,1.20
2023-04-11T16:28:50.885Z,1.35
2023-04-11T16:31:21.878Z,1.20
2023-04-11T16:33:48.314Z,1.20
2023-04-11T16:36:14.880Z,1.55
2023-04-11T16:38:42.083Z,1.10
2023-04-11T16:41:08.715Z,1.85
2023-04-11T16:43:35.106Z,1.45
2023-04-11T16:46:01.953Z,1.50
2023-04-11T16:48:30.211Z,1.70
2023-04-11T16:50:56.884Z,1.40
2023-04-11T16:53:23.247Z,1.60
2023-04-11T16:55:49.945Z,2.15
2023-04-11T16:58:16.857Z,1.90
2023-04-11T17:00:43.712Z,2.00
2023-04-11T17:03:10.927Z,1.50
2023-04-11T17:05:39.265Z,1.45
2023-04-11T17:08:05.828Z,1.55
2023-04-11T17:10:32.388Z,1.27
2023-04-11T17:12:59.070Z,1.35
2023-04-11T17:15:25.462Z,1.25
2023-04-11T17:17:51.844Z,1.33
2023-04-11T17:20:18.448Z,1.45
2023-04-11T17:22:45.178Z,1.23
2023-04-11T17:25:11.692Z,1.50
2023-04-11T17:27:38.668Z,1.20
2023-04-11T17:30:05.808Z,1.48
2023-04-11T17:32:32.773Z,1.75
2023-04-11T17:35:00.948Z,1.55
2023-04-11T17:37:27.653Z,1.63
2023-04-11T17:39:54.502Z,2.35
2023-04-11T17:42:21.643Z,2.47
2023-04-11T17:44:48.039Z,2.10
2023-04-11T17:47:14.626Z,1.98
2023-04-11T17:49:41.107Z,1.70
2023-04-11T17:52:08.356Z,1.70
2023-04-11T17:54:34.805Z,2.13
2023-04-11T17:57:01.211Z,1.70
2023-04-11T17:59:27.808Z,2.40
2023-04-11T18:01:55.857Z,2.00
2023-04-11T18:04:23.195Z,1.92
2023-04-11T18:06:49.568Z,2.05
2023-04-11T18:09:16.272Z,1.95
2023-04-11T18:11:43.826Z,1.95
2023-04-11T18:14:10.324Z,3.10
2023-04-11T18:16:38.712Z,1.98
2023-04-11T18:19:05.481Z,2.22
2023-04-11T18:21:31.810Z,2.40
2023-04-11T18:23:58.511Z,2.05
2023-04-11T18:26:25.103Z,2.35
2023-04-11T18:28:51.429Z,3.00
2023-04-11T18:31:18.050Z,2.60
2023-04-11T18:33:46.873Z,2.78
2023-04-11T18:36:14.207Z,2.78
2023-04-11T18:38:41.311Z,3.90
2023-04-11T18:41:08.329Z,2.92
2023-04-11T18:43:35.644Z,2.78
2023-04-11T18:46:02.615Z,2.50
2023-04-11T18:48:29.444Z,2.20
2023-04-11T18:51:00.595Z,2.20
2023-04-11T18:53:29.011Z,2.35
2023-04-11T18:55:55.501Z,2.58
2023-04-11T18:58:25.731Z,2.60
2023-04-11T19:00:53.288Z,2.53
2023-04-11T19:03:20.673Z,2.42
2023-04-11T19:05:48.227Z,2.80
2023-04-11T19:08:14.688Z,2.60
2023-04-11T19:10:41.377Z,3.08
2023-04-11T19:13:08.118Z,3.15
2023-04-11T19:15:34.543Z,2.58
2023-04-11T19:18:01.712Z,3.10
2023-04-11T19:20:29.668Z,2.55
2023-04-11T19:22:56.235Z,2.90
2023-04-11T19:25:22.700Z,2.92
2023-04-11T19:27:50.394Z,2.40
2023-04-11T19:30:20.061Z,2.37
2023-04-11T19:32:47.577Z,2.40
2023-04-11T19:35:14.735Z,3.70
2023-04-11T19:37:42.467Z,3.70
2023-04-11T19:40:13.688Z,3.28
2023-04-11T19:42:41.895Z,3.83
2023-04-11T19:45:12.208Z,3.85
2023-04-11T19:47:40.060Z,3.33
2023-04-11T19:50:15.332Z,3.42
2023-04-11T19:52:42.912Z,3.25
2023-04-11T19:55:10.997Z,3.22
2023-04-11T19:57:39.185Z,3.03
2023-04-11T20:00:14.102Z,3.50
2023-04-11T20:02:44.531Z,2.90
2023-04-11T20:05:17.034Z,2.83
2023-04-11T20:07:43.969Z,2.88
2023-04-11T20:10:12.154Z,2.30
2023-04-11T20:12:39.557Z,2.35
2023-04-11T20:15:09.263Z,2.20
2023-04-11T20:17:35.895Z,2.22
2023-04-11T20:20:05.909Z,2.20
2023-04-11T20:22:32.498Z,2.92
2023-04-11T20:24:58.882Z,2.55
2023-04-11T20:27:27.433Z,2.70
2023-04-11T20:34:48.833Z,2.45
2023-04-11T20:37:17.045Z,2.97
2023-04-11T20:39:45.724Z,3.55
2023-04-11T20:42:13.183Z,2.60
2023-04-11T20:44:39.628Z,2.92
2023-04-11T20:47:07.649Z,3.67
2023-04-11T20:49:34.090Z,3.20
2023-04-11T20:52:02.069Z,2.50
2023-04-11T20:54:28.744Z,2.80
2023-04-11T20:56:55.906Z,2.50
2023-04-11T20:59:22.246Z,2.60
2023-04-11T21:01:48.617Z,2.60
2023-04-11T21:04:17.543Z,2.20
2023-04-11T21:06:44.823Z,2.72
2023-04-11T21:09:11.225Z,2.80
2023-04-11T21:11:37.570Z,2.60
2023-04-11T21:14:05.132Z,2.88
2023-04-11T21:16:31.503Z,2.97
2023-04-11T21:18:58.980Z,3.28
2023-04-11T21:21:26.764Z,2.70
2023-04-11T21:23:53.747Z,3.40
2023-04-11T21:26:20.096Z,3.40
2023-04-11T21:28:46.709Z,3.78
2023-04-11T21:31:13.085Z,2.63
2023-04-11T21:33:39.654Z,3.13
2023-04-11T21:36:06.543Z,2.63
2023-04-11T21:38:33.186Z,2.63
2023-04-11T21:40:59.685Z,2.58
2023-04-11T21:43:26.306Z,2.72
2023-04-11T21:45:52.680Z,3.60
2023-04-11T21:48:19.092Z,4.10
2023-04-11T21:50:46.097Z,4.10
2023-04-11T21:53:13.987Z,3.90
2023-04-11T21:55:46.681Z,3.75
2023-04-11T21:58:27.867Z,3.50
2023-04-11T22:00:56.140Z,3.88
2023-04-11T22:03:23.772Z,3.22
2023-04-11T22:05:54.221Z,2.85
2023-04-11T22:08:22.412Z,3.10
2023-04-11T22:10:50.756Z,2.70
2023-04-11T22:13:19.474Z,3.40
2023-04-11T22:18:12.999Z,3.00
2023-04-11T22:20:43.981Z,3.30
2023-04-11T22:23:12.598Z,3.00
2023-04-11T22:25:42.923Z,2.83
2023-04-11T22:28:20.613Z,2.58
2023-04-11T22:30:48.706Z,2.85
2023-04-11T22:33:15.618Z,2.45
2023-04-11T22:35:48.027Z,2.50
2023-04-11T22:38:17.367Z,2.35
2023-04-11T22:40:43.767Z,2.45
2023-04-11T22:43:10.526Z,2.30
2023-04-11T22:45:37.026Z,2.55
2023-04-11T22:48:04.670Z,2.38
2023-04-11T22:50:41.732Z,2.53
2023-04-11T22:53:09.479Z,2.35
2023-04-11T22:55:36.161Z,2.67
2023-04-11T22:58:03.645Z,2.40
2023-04-11T23:00:30.057Z,2.38
2023-04-11T23:02:59.289Z,3.35
2023-04-11T23:05:25.785Z,2.50
2023-04-11T23:07:52.125Z,2.47
2023-04-11T23:10:19.248Z,2.53
2023-04-11T23:12:47.276Z,2.90
2023-04-11T23:15:13.972Z,2.90
2023-04-11T23:17:41.486Z,2.40
2023-04-11T23:20:12.989Z,2.45
2023-04-11T23:22:42.027Z,2.60
2023-04-11T23:25:12.803Z,2.50
2023-04-11T23:27:39.692Z,2.40
2023-04-11T23:30:08.891Z,2.70
2023-04-11T23:32:35.723Z,2.45
2023-04-11T23:35:04.459Z,1.67
2023-04-11T23:37:32.433Z,1.95
2023-04-11T23:39:59.341Z,2.03
2023-04-11T23:42:26.127Z,2.38
2023-04-11T23:44:52.810Z,2.78
2023-04-11T23:47:19.503Z,2.90
2023-04-11T23:49:46.061Z,2.00
2023-04-11T23:52:12.512Z,2.47
2023-04-11T23:54:39.205Z,2.20
2023-04-11T23:57:06.143Z,2.30
2023-04-11T23:59:32.565Z,2.00
